Latest Coastal Weather Observations for Hobart

IDT60701

Issued at 11:11 am EDT Thursday 29 January 2015 (issued every 10 minutes, with the page automatically refreshed every 10 minutes)

About coastal observations | Map of coastal stations | Coastal observations for TAS | Marine services | Other Formats
Station Details ID: 094029 Name: HOBART (ELLERSLIE ROAD) Lat: -42.89 Lon: 147.33 Height: 50.5 m
Data from the previous 72 hours. | See also: Recent months at Hobart
Date/Time
EDT
Temp

°C
Wind Pressure Rain
since 9am
mm
Weather Cloud Vis
km
Sea
Height
m
Swell
Dir
 
Speed
knots
Gust
knots
hPa Trend Height
m
Period
s
Dir
29/11:00am 14.1 SSE 14 19 1025.7 - 0.0 - - - - - - -
29/10:30am 14.0 SSE 14 20 1025.6 - 0.0 - - - - - - -
29/10:00am 13.6 S 9 12 1025.7 - 0.0 - - - - - - -
29/09:30am 12.6 SSW 11 15 1025.6 - 0.0 - - - - - - -
29/09:00am 11.6 SSW 8 11 1025.6 - 1.2 - - - - - - -
29/08:30am 11.3 SSW 9 13 1025.6 - 1.2 - - - - - - -
29/08:00am 11.3 S 11 18 1025.6 - 1.2 - - - - - - -
29/07:30am 12.3 S 9 14 1025.4 - 1.0 - - - - - - -
29/07:00am 12.1 SSE 15 20 1025.3 - 1.0 - - - - - - -
29/06:30am 11.2 SSW 11 15 1025.0 - 1.0 - - - - - - -
29/06:00am 11.1 SSW 12 17 1024.8 - 1.0 - - - - - - -
29/05:30am 11.4 SSW 13 18 1024.7 - 1.0 - - - - - - -
29/05:00am 12.4 SSE 12 21 1024.6 - 1.0 - - - - - - -
29/04:30am 11.5 SSW 11 16 1024.4 - 1.0 - - - - - - -
29/04:00am 11.5 SSW 11 15 1024.4 - 1.0 - - - - - - -
29/03:30am 11.2 SSW 10 16 1024.6 - 1.0 - - - - - - -
29/03:00am 11.3 SSW 9 12 1024.8 - 1.0 Recent precip. - - - - - -
29/02:30am 11.3 SSW 9 13 1024.9 - 1.0 - - - - - - -
29/02:00am 11.3 SSW 11 17 1025.1 - 0.8 - - - - - - -
29/01:30am 11.2 SSW 11 16 1025.2 - 0.6 - - - - - - -
29/01:00am 11.2 SSW 10 14 1025.5 - 0.6 - - - - - - -
29/12:30am 11.2 SSW 9 11 1025.8 - 0.6 - - - - - - -
29/12:00am 11.1 SSE 13 20 1026.0 - 0.2 - - - - - - -
 
Date/Time
EDT
Temp

°C
Wind Pressure Rain
since 9am
mm
Weather Cloud Vis
km
Sea
Height
m
Swell
Dir
 
Speed
knots
Gust
knots
hPa Trend Height
m
Period
s
Dir
28/11:30pm 12.2 SSW 10 15 1025.6 - 0.2 - - - - - - -
28/11:00pm 12.4 SSW 11 15 1025.8 - 0.2 - - - - - - -
28/10:30pm 12.4 SSW 10 14 1025.9 - 0.2 - - - - - - -
28/10:00pm 12.5 SSW 10 15 1026.2 - 0.2 - - - - - - -
28/09:30pm 12.7 SSW 10 14 1026.2 - 0.2 - - - - - - -
28/09:00pm 13.1 SSW 10 15 1025.9 - 0.2 - - - - - - -
28/08:30pm 13.3 SSE 13 19 1025.7 - 0.2 - - - - - - -
28/08:00pm 13.4 SSE 13 21 1025.6 - 0.2 - - - - - - -
28/07:30pm 13.7 SSE 15 21 1025.4 - 0.2 - - - - - - -
28/07:00pm 13.9 SSE 15 22 1025.3 - 0.2 - - - - - - -
28/06:30pm 14.0 SSE 15 20 1025.4 - 0.2 - - - - - - -
28/06:00pm 14.4 SSE 13 18 1025.3 - 0.2 - - - - - - -
28/05:30pm 14.1 S 15 21 1025.1 - 0.2 - - - - - - -
28/05:00pm 14.3 SSE 14 21 1025.1 - 0.2 - - - - - - -
28/04:30pm 14.8 SSE 14 20 1025.0 - 0.2 - - - - - - -
28/04:00pm 14.3 SSE 16 24 1025.0 - 0.2 - - - - - - -
28/03:30pm 14.7 SSE 16 22 1025.0 - 0.2 - - - - - - -
28/03:00pm 14.5 SSE 15 21 1025.2 - 0.2 - - - - - - -
28/02:30pm 14.4 SSE 15 21 1025.2 - 0.2 - - - - - - -
28/02:00pm 14.3 SSE 14 21 1025.1 - 0.2 - - - - - - -
28/01:30pm 15.1 SSE 10 17 1025.2 - 0.2 - - - - - - -
28/01:00pm 13.4 S 12 21 1025.4 - 0.2 - - - - - - -
28/12:30pm 12.4 S 15 23 1025.5 - 0.0 - - - - - - -
28/12:15pm 13.0 SSE 16 26 1025.3 - 0.0 - - - - - - -
28/12:00pm 14.7 S 13 20 1025.2 - 0.0 - - - - - - -
28/11:30am 13.9 SE 14 19 1025.1 - 0.0 - - - - - - -
28/11:00am 14.4 S 13 18 1025.0 - 0.0 - - - - - - -
28/10:30am 13.2 SSE 10 15 1025.1 - 0.0 - - - - - - -
28/10:00am 12.7 S 13 22 1024.9 - 0.0 - - - - - - -
28/09:30am 14.1 SSW 13 19 1024.4 - 0.0 - - - - - - -
28/09:00am 13.5 SSW 13 18 1024.0 - 2.2 - - - - - - -
28/08:30am 12.9 SSW 13 19 1023.8 - 2.2 - - - - - - -
28/08:00am 13.1 SSW 9 14 1023.5 - 2.2 - - - - - - -
28/07:30am 12.3 SSW 10 16 1023.2 - 2.2 - - - - - - -
28/07:00am 11.2 SSW 9 14 1022.9 - 2.2 - - - - - - -
28/06:30am 11.5 SSW 12 19 1022.6 - 2.2 - - - - - - -
28/06:00am 11.7 SSW 6 9 1022.4 - 2.2 - - - - - - -
28/05:30am 11.7 SSW 10 13 1022.1 - 2.2 - - - - - - -
28/05:00am 11.1 SSW 8 11 1021.8 - 2.2 - - - - - - -
28/04:30am 11.2 SSW 8 11 1021.7 - 2.2 - - - - - - -
28/04:00am 11.0 SSW 9 11 1021.7 - 2.2 - - - - - - -
28/03:30am 10.7 SSW 9 13 1021.8 - 2.2 - - - - - - -
28/03:00am 10.5 SSW 7 9 1022.0 - 2.2 - - - - - - -
28/02:30am 11.0 SW 7 11 1022.1 - 2.2 - - - - - - -
28/02:00am 11.4 SW 12 15 1022.3 - 2.2 - - - - - - -
28/01:30am 11.8 SW 11 15 1022.2 - 2.2 - - - - - - -
28/01:00am 12.0 SW 11 18 1022.2 - 2.2 - - - - - - -
28/12:30am 12.1 SSW 9 14 1022.1 - 2.2 - - - - - - -
28/12:00am 12.5 SSW 7 12 1022.1 - 2.2 - - - - - - -
 
Date/Time
EDT
Temp

°C
Wind Pressure Rain
since 9am
mm
Weather Cloud Vis
km
Sea
Height
m
Swell
Dir
 
Speed
knots
Gust
knots
hPa Trend Height
m
Period
s
Dir
27/11:30pm 12.5 SSW 7 10 1022.0 - 2.2 - - - - - - -
27/11:00pm 12.5 SSW 9 12 1022.0 - 2.2 - - - - - - -
27/10:30pm 12.6 SSW 11 16 1021.6 - 2.2 - - - - - - -
27/10:00pm 12.8 SSW 11 16 1021.4 - 2.2 - - - - - - -
27/09:30pm 13.1 SSW 11 16 1021.0 - 2.2 - - - - - - -
27/09:00pm 13.3 S 11 18 1020.7 - 2.2 - - - - - - -
27/08:30pm 13.6 S 13 21 1020.4 - 2.2 - - - - - - -
27/08:00pm 13.6 S 10 15 1020.0 - 2.2 - - - - - - -
27/07:30pm 13.8 S 10 18 1019.6 - 2.2 - - - - - - -
27/07:00pm 14.1 SE 7 15 1019.4 - 2.2 - - - - - - -
27/06:30pm 14.1 SSE 5 7 1019.1 - 2.2 - - - - - - -
27/06:00pm 14.6 S 9 11 1018.9 - 2.2 - - - - - - -
27/05:30pm 14.8 SSE 8 11 1018.8 - 2.2 - - - - - - -
27/05:00pm 14.7 SSW 8 12 1018.5 - 2.2 - - - - - - -
27/04:30pm 15.6 S 8 12 1018.5 - 2.0 - - - - - - -
27/04:00pm 13.7 SSW 11 16 1018.5 - 1.8 - - - - - - -
27/03:30pm 15.6 SE 6 9 1018.1 - 0.6 - - - - - - -
27/03:00pm 15.3 SE 9 11 1017.9 - 0.4 - - - - - - -
27/02:30pm 15.9 ESE 8 10 1017.8 - 0.4 - - - - - - -
27/02:00pm 14.5 SE 6 9 1018.0 - 0.4 - - - - - - -
27/01:30pm 14.4 SE 8 11 1018.2 - 0.0 - - - - - - -
27/01:00pm 15.8 E 7 9 1018.0 - 0.0 - - - - - - -
27/12:30pm 15.6 SSE 8 11 1017.9 - 0.0 - - - - - - -
27/12:00pm 15.1 SE 5 7 1017.8 - 0.0 - - - - - - -
27/11:30am 15.4 SE 7 9 1017.9 - 0.0 - - - - - - -
27/11:00am 14.8 SE 8 12 1018.1 - 0.0 - - - - - - -
27/10:30am 15.7 ESE 6 9 1018.0 - 0.0 - - - - - - -
27/10:00am 16.3 NE 6 7 1017.8 - 0.0 - - - - - - -
27/09:30am 16.4 N 6 9 1017.8 - 0.0 - - - - - - -
27/09:00am 15.3 N 7 11 1017.7 - 0.0 - - - - - - -
27/08:30am 14.0 NNW 4 6 1017.7 - 0.0 - - - - - - -
27/08:00am 12.7 N 3 6 1017.6 - 0.0 - - - - - - -
27/07:30am 12.4 NNW 1 4 1017.3 - 0.0 - - - - - - -
27/07:00am 12.0 WSW 4 6 1016.9 - 0.0 - - - - - - -
27/06:30am 11.7 NNW 7 9 1016.6 - 0.0 - - - - - - -
27/06:00am 11.8 NW 4 6 1016.4 - 0.0 - - - - - - -
27/05:30am 12.0 NW 1 3 1016.3 - 0.0 - - - - - - -
27/05:00am 12.1 W 1 4 1016.2 - 0.0 - - - - - - -
27/04:30am 12.7 NNE 1 3 1016.3 - 0.0 - - - - - - -
27/04:00am 13.2 N 1 3 1016.5 - 0.0 - - - - - - -
27/03:30am 13.4 ENE 3 5 1016.8 - 0.0 - - - - - - -
27/03:00am 13.1 SSW 4 6 1016.9 - 0.0 - - - - - - -
27/02:30am 12.9 WSW 2 4 1017.1 - 0.0 - - - - - - -
27/02:00am 12.5 WSW 4 5 1017.1 - 0.0 - - - - - - -
27/01:30am 12.6 W 3 5 1017.2 - 0.0 - - - - - - -
27/01:00am 12.3 W 3 5 1017.3 - 0.0 - - - - - - -
27/12:30am 12.4 WSW 5 6 1017.3 - 0.0 - - - - - - -
27/12:00am 12.8 WSW 4 5 1017.3 - 0.0 - - - - - - -
 
Date/Time
EDT
Temp

°C
Wind Pressure Rain
since 9am
mm
Weather Cloud Vis
km
Sea
Height
m
Swell
Dir
 
Speed
knots
Gust
knots
hPa Trend Height
m
Period
s
Dir
26/11:30pm 13.5 NW 5 7 1017.4 - 0.0 - - - - - - -
26/11:00pm 13.7 NNW 2 4 1017.2 - 0.0 - - - - - - -
26/10:30pm 14.3 N 4 5 1017.2 - 0.0 - - - - - - -
26/10:00pm 14.8 ENE 8 10 1017.0 - 0.0 - - - - - - -
26/09:30pm 14.5 SE 1 7 1016.6 - 0.0 - - - - - - -
26/09:00pm 14.8 SE 2 4 1016.2 - 0.0 - - - - - - -
26/08:30pm 15.1 SW 6 8 1015.9 - 0.0 - - - - - - -
26/08:00pm 16.0 W 9 14 1015.4 - 0.0 - - - - - - -
26/07:30pm 16.4 W 8 12 1015.1 - 0.0 - - - - - - -
26/07:00pm 16.7 WNW 8 11 1014.7 - 0.0 - - - - - - -
26/06:30pm 17.0 NW 10 17 1014.5 - 0.0 - - - - - - -
26/06:00pm 17.5 WNW 8 14 1014.1 - 0.0 - - - - - - -
26/05:30pm 17.8 SW 9 13 1014.0 - 0.0 - - - - - - -
26/05:00pm 17.4 SW 6 10 1014.0 - 0.0 - - - - - - -
26/04:30pm 18.0 NW 6 11 1014.1 - 0.0 - - - - - - -
26/04:00pm 18.1 WSW 6 11 1013.9 - 0.0 - - - - - - -
26/03:30pm 17.9 NW 6 12 1013.6 - 0.0 - - - - - - -
26/03:00pm 18.6 WNW 6 13 1013.5 - 0.0 - - - - - - -
26/02:30pm 18.8 NNW 6 13 1013.4 - 0.0 - - - - - - -
26/02:00pm 18.9 WNW 7 13 1013.5 - 0.0 - - - - - - -
26/01:30pm 18.3 SW 8 15 1013.3 - 0.0 - - - - - - -
26/01:00pm 18.2 SW 12 21 1013.2 - 0.0 - - - - - - -
26/12:30pm 18.6 W 8 15 1013.3 - 0.0 - - - - - - -
26/12:00pm 18.0 NW 10 16 1013.3 - 0.0 - - - - - - -
26/11:30am 16.7 SW 10 16 1013.1 - 0.0 - - - - - - -
26/11:15am 17.2 WNW 10 22 1013.0 - 0.0 - - - - - - -

Other Formats:

Comma delimited format used in spreadsheet applications
http://www.bom.gov.au/fwo/IDT60701/IDT60701.94970.axf

JavaScript Object Notation format (JSON) in row-major order
http://www.bom.gov.au/fwo/IDT60701/IDT60701.94970.json